Time;durP1;ratioP1;P1;durP2;ratioP2;P2;SDS_P1;SDS_P2;PMS_P1;PMS_P2;Temp;Humidity;BMP_temperature;BMP_pressure;BME280_temperature;BME280_humidity;BME280_pressure;Samples;Min_cycle;Max_cycle;Signal;HPM_P1;HPM_P2
2024/01/13 00:01:51;;;;;;;14.63;6.68;;;;;;;;;;5012163;28;20025;-61
2024/01/13 00:04:17;;;;;;;15.23;8.93;;;;;;;;;;5015200;28;20022;-61
2024/01/13 00:06:43;;;;;;;13.13;9.50;;;;;;;;;;5011312;28;20405;-61
2024/01/13 00:09:10;;;;;;;22.42;9.15;;;;;;;;;;5018982;28;20033;-61
2024/01/13 00:11:36;;;;;;;17.15;9.23;;;;;;;;;;5011797;28;20072;-61
2024/01/13 00:14:02;;;;;;;15.32;8.35;;;;;;;;;;5020067;28;20580;-61
2024/01/13 00:16:29;;;;;;;17.15;9.02;;;;;;;;;;5032361;28;20035;-61
2024/01/13 00:18:55;;;;;;;15.35;9.15;;;;;;;;;;5023564;28;20026;-69
2024/01/13 00:21:21;;;;;;;15.25;8.60;;;;;;;;;;5019308;28;20005;-70
2024/01/13 00:23:47;;;;;;;16.92;8.50;;;;;;;;;;5010162;28;20029;-69
2024/01/13 00:26:13;;;;;;;18.95;8.57;;;;;;;;;;5018714;28;20389;-70
2024/01/13 00:28:39;;;;;;;12.93;7.35;;;;;;;;;;5017083;28;20040;-70
2024/01/13 00:31:06;;;;;;;14.50;8.35;;;;;;;;;;5017741;28;20052;-70
2024/01/13 00:33:32;;;;;;;14.52;9.55;;;;;;;;;;5009413;28;20029;-70
2024/01/13 00:35:58;;;;;;;15.45;8.18;;;;;;;;;;5015125;28;20029;-70
2024/01/13 00:38:24;;;;;;;18.63;8.18;;;;;;;;;;5011553;28;20030;-69
2024/01/13 00:40:50;;;;;;;16.83;8.07;;;;;;;;;;5010970;28;20037;-70
2024/01/13 00:43:16;;;;;;;13.23;8.32;;;;;;;;;;5014954;28;20025;-69
2024/01/13 00:45:43;;;;;;;12.07;6.80;;;;;;;;;;5012934;28;20145;-70
2024/01/13 00:48:09;;;;;;;19.50;10.55;;;;;;;;;;5025355;28;20032;-70
2024/01/13 00:50:35;;;;;;;11.52;7.13;;;;;;;;;;5015285;28;20556;-70
2024/01/13 00:53:01;;;;;;;8.65;5.93;;;;;;;;;;5045450;28;20392;-69
2024/01/13 00:55:27;;;;;;;13.45;6.82;;;;;;;;;;5020194;28;20033;-70
2024/01/13 00:57:53;;;;;;;11.10;7.57;;;;;;;;;;5018592;28;20618;-70
2024/01/13 01:00:19;;;;;;;14.75;7.88;;;;;;;;;;5022324;28;20034;-71
2024/01/13 01:02:46;;;;;;;18.10;10.15;;;;;;;;;;5019564;28;20022;-70
2024/01/13 01:05:12;;;;;;;12.95;7.65;;;;;;;;;;5014256;28;20391;-70
2024/01/13 01:07:38;;;;;;;16.25;7.22;;;;;;;;;;5019432;28;20025;-70
2024/01/13 01:10:04;;;;;;;12.55;8.30;;;;;;;;;;5019138;28;20033;-70
2024/01/13 01:12:30;;;;;;;12.27;7.07;;;;;;;;;;5020394;28;20092;-70
2024/01/13 01:14:56;;;;;;;13.45;7.80;;;;;;;;;;5029358;28;20946;-69
2024/01/13 01:17:23;;;;;;;14.32;7.63;;;;;;;;;;5017875;28;20045;-69
2024/01/13 01:19:49;;;;;;;14.52;9.35;;;;;;;;;;5006892;28;20029;-70
2024/01/13 01:22:15;;;;;;;11.77;7.57;;;;;;;;;;5012597;28;20030;-70
2024/01/13 01:24:41;;;;;;;14.13;7.82;;;;;;;;;;5015715;28;20022;-70
2024/01/13 01:27:07;;;;;;;13.30;8.18;;;;;;;;;;5018990;28;20045;-69
2024/01/13 01:29:33;;;;;;;16.23;7.57;;;;;;;;;;5025016;28;20388;-70
2024/01/13 01:31:59;;;;;;;12.18;6.10;;;;;;;;;;5018240;28;20385;-69
2024/01/13 01:34:25;;;;;;;17.33;9.32;;;;;;;;;;5011954;28;20058;-69
2024/01/13 01:36:52;;;;;;;11.07;6.72;;;;;;;;;;5014577;28;20036;-70
2024/01/13 01:39:18;;;;;;;12.88;6.85;;;;;;;;;;5036931;28;20112;-69
2024/01/13 01:41:44;;;;;;;10.95;7.70;;;;;;;;;;5017745;28;20389;-69
2024/01/13 01:44:10;;;;;;;14.30;7.32;;;;;;;;;;5011272;28;20442;-70
2024/01/13 01:46:37;;;;;;;16.55;7.95;;;;;;;;;;5021554;28;20112;-69
2024/01/13 01:49:03;;;;;;;11.93;6.68;;;;;;;;;;5009188;28;20030;-69
2024/01/13 01:51:30;;;;;;;12.90;8.48;;;;;;;;;;5009508;28;20049;-70
2024/01/13 01:53:56;;;;;;;10.93;6.35;;;;;;;;;;5017825;28;20045;-70
2024/01/13 01:56:24;;;;;;;14.13;7.88;;;;;;;;;;5015544;28;20038;-70
2024/01/13 01:58:53;;;;;;;12.88;6.68;;;;;;;;;;5019659;28;20034;-70
2024/01/13 02:01:20;;;;;;;18.85;9.25;;;;;;;;;;5023963;28;20109;-69
2024/01/13 02:03:47;;;;;;;9.80;6.63;;;;;;;;;;5019326;28;20020;-70
2024/01/13 02:06:13;;;;;;;12.57;7.47;;;;;;;;;;5018742;28;20378;-70
2024/01/13 02:08:40;;;;;;;15.43;8.15;;;;;;;;;;5017249;28;20140;-69
2024/01/13 02:11:07;;;;;;;18.75;7.45;;;;;;;;;;5016317;28;20065;-70
2024/01/13 02:13:33;;;;;;;12.25;6.75;;;;;;;;;;5023060;28;20028;-69
2024/01/13 02:15:59;;;;;;;14.48;7.63;;;;;;;;;;5020813;28;20043;-69
2024/01/13 02:18:25;;;;;;;15.32;6.05;;;;;;;;;;5023335;28;20025;-70
2024/01/13 02:20:52;;;;;;;10.50;6.93;;;;;;;;;;5022571;28;20030;-70
2024/01/13 02:23:18;;;;;;;14.70;7.88;;;;;;;;;;5023806;28;20049;-70
2024/01/13 02:25:45;;;;;;;14.13;7.47;;;;;;;;;;5023929;28;20025;-69
2024/01/13 02:28:12;;;;;;;12.55;5.82;;;;;;;;;;5018111;28;20612;-70
2024/01/13 02:30:38;;;;;;;12.43;6.47;;;;;;;;;;5026211;28;20054;-70
2024/01/13 02:33:04;;;;;;;11.60;6.05;;;;;;;;;;5038340;28;20493;-69
2024/01/13 02:35:31;;;;;;;15.48;7.55;;;;;;;;;;5035486;28;20033;-70
2024/01/13 02:37:57;;;;;;;16.00;8.13;;;;;;;;;;5041737;28;20041;-70
2024/01/13 02:40:23;;;;;;;12.52;7.00;;;;;;;;;;5019918;28;20030;-70
2024/01/13 02:42:49;;;;;;;12.70;7.40;;;;;;;;;;5023444;28;20038;-70
2024/01/13 02:45:15;;;;;;;11.35;7.22;;;;;;;;;;5025792;28;20017;-70
2024/01/13 02:47:45;;;;;;;13.05;7.75;;;;;;;;;;5014866;28;20547;-70
2024/01/13 02:50:13;;;;;;;14.13;6.78;;;;;;;;;;5018194;28;20053;-70
2024/01/13 02:52:42;;;;;;;14.50;7.22;;;;;;;;;;5014136;28;20493;-70
2024/01/13 02:55:09;;;;;;;11.77;7.38;;;;;;;;;;5019044;28;20029;-70
2024/01/13 02:57:35;;;;;;;9.88;5.82;;;;;;;;;;5032856;28;20062;-69
2024/01/13 03:00:04;;;;;;;8.77;6.47;;;;;;;;;;5023401;28;20021;-70
2024/01/13 03:02:30;;;;;;;10.63;5.70;;;;;;;;;;5019651;28;20045;-70
2024/01/13 03:04:56;;;;;;;10.93;6.07;;;;;;;;;;5023248;28;20349;-70
2024/01/13 03:07:22;;;;;;;13.18;7.30;;;;;;;;;;5016026;28;20045;-69
2024/01/13 03:09:49;;;;;;;12.05;6.18;;;;;;;;;;5013794;28;20100;-69
2024/01/13 03:12:15;;;;;;;11.45;6.85;;;;;;;;;;5018925;28;20038;-70
2024/01/13 03:14:41;;;;;;;13.90;7.70;;;;;;;;;;5014797;28;20528;-70
2024/01/13 03:17:07;;;;;;;12.55;7.38;;;;;;;;;;5010777;28;20034;-70
2024/01/13 03:19:33;;;;;;;13.80;7.10;;;;;;;;;;5009185;28;20493;-70
2024/01/13 03:21:59;;;;;;;11.57;7.50;;;;;;;;;;5018983;28;20026;-69
2024/01/13 03:24:26;;;;;;;16.20;6.85;;;;;;;;;;5015984;28;20082;-70
2024/01/13 03:26:52;;;;;;;11.57;6.38;;;;;;;;;;5015334;28;20112;-69
2024/01/13 03:29:18;;;;;;;11.27;6.13;;;;;;;;;;5014066;28;20040;-70
2024/01/13 03:31:44;;;;;;;11.52;6.95;;;;;;;;;;5016975;28;20021;-69
2024/01/13 03:34:10;;;;;;;11.68;7.30;;;;;;;;;;5017651;28;20037;-70
2024/01/13 03:36:36;;;;;;;11.45;6.03;;;;;;;;;;5013394;28;20030;-69
2024/01/13 03:39:03;;;;;;;9.90;6.32;;;;;;;;;;5018540;28;20080;-69
2024/01/13 03:41:29;;;;;;;11.85;5.95;;;;;;;;;;5019686;28;20076;-69
2024/01/13 03:43:57;;;;;;;10.70;6.38;;;;;;;;;;5016402;28;20025;-69
2024/01/13 03:46:24;;;;;;;11.10;6.43;;;;;;;;;;5013621;28;20812;-70
2024/01/13 03:48:50;;;;;;;12.50;7.63;;;;;;;;;;5016078;28;20401;-70
2024/01/13 03:51:16;;;;;;;15.45;6.82;;;;;;;;;;5013495;28;20045;-70
2024/01/13 03:53:43;;;;;;;11.68;6.40;;;;;;;;;;5017417;28;20286;-70
2024/01/13 03:56:09;;;;;;;17.70;6.28;;;;;;;;;;5015485;28;20110;-70
2024/01/13 03:58:36;;;;;;;13.05;6.88;;;;;;;;;;5015666;28;20105;-70
2024/01/13 04:01:03;;;;;;;11.60;6.68;;;;;;;;;;5016179;28;20033;-69
2024/01/13 04:03:29;;;;;;;11.80;6.32;;;;;;;;;;5033623;28;20181;-69
2024/01/13 04:05:56;;;;;;;11.23;6.28;;;;;;;;;;5011408;28;20195;-70
2024/01/13 04:08:22;;;;;;;11.93;6.32;;;;;;;;;;5018569;28;20034;-70
2024/01/13 04:10:48;;;;;;;13.32;7.30;;;;;;;;;;5012126;28;20044;-70
2024/01/13 04:13:15;;;;;;;9.70;6.50;;;;;;;;;;5009659;28;20036;-70
2024/01/13 04:15:41;;;;;;;10.88;5.43;;;;;;;;;;5013556;28;20033;-69
2024/01/13 04:18:07;;;;;;;10.32;6.60;;;;;;;;;;5018412;28;20026;-70
2024/01/13 04:20:33;;;;;;;9.45;6.22;;;;;;;;;;5011301;28;20322;-69
2024/01/13 04:22:59;;;;;;;12.40;6.88;;;;;;;;;;5017962;28;20038;-70
2024/01/13 04:25:26;;;;;;;10.43;5.88;;;;;;;;;;5014157;28;20169;-70
2024/01/13 04:27:54;;;;;;;12.23;7.30;;;;;;;;;;5034148;28;20044;-69
2024/01/13 04:30:20;;;;;;;13.32;5.70;;;;;;;;;;5017612;28;20036;-70
2024/01/13 04:32:46;;;;;;;11.93;6.72;;;;;;;;;;5013332;28;20446;-70
2024/01/13 04:35:12;;;;;;;12.95;6.43;;;;;;;;;;5021083;28;20492;-70
2024/01/13 04:37:39;;;;;;;10.50;6.32;;;;;;;;;;5020532;28;20260;-70
2024/01/13 04:40:06;;;;;;;11.23;6.82;;;;;;;;;;5017551;28;20390;-70
2024/01/13 04:42:33;;;;;;;12.18;6.65;;;;;;;;;;5014072;28;20025;-70
2024/01/13 04:44:59;;;;;;;10.07;5.80;;;;;;;;;;5027451;28;20075;-70
2024/01/13 04:47:26;;;;;;;15.27;7.30;;;;;;;;;;5016309;28;20375;-69
2024/01/13 04:49:52;;;;;;;10.18;6.30;;;;;;;;;;5014353;28;20041;-70
2024/01/13 04:52:18;;;;;;;12.52;7.30;;;;;;;;;;5018737;28;20123;-70
2024/01/13 04:54:44;;;;;;;10.50;6.60;;;;;;;;;;5016378;28;20025;-70
2024/01/13 04:57:11;;;;;;;13.35;7.25;;;;;;;;;;5031343;28;20034;-70
2024/01/13 04:59:37;;;;;;;12.23;6.60;;;;;;;;;;5036810;28;20041;-69
2024/01/13 05:02:03;;;;;;;13.70;7.53;;;;;;;;;;5013567;28;20051;-70
2024/01/13 05:04:29;;;;;;;12.45;6.35;;;;;;;;;;5013116;28;20379;-69
2024/01/13 05:06:56;;;;;;;14.52;7.00;;;;;;;;;;5019883;28;20529;-69
2024/01/13 05:09:22;;;;;;;9.63;6.93;;;;;;;;;;5041716;28;20029;-70
2024/01/13 05:11:48;;;;;;;12.90;6.25;;;;;;;;;;5012251;28;20412;-69
2024/01/13 05:14:15;;;;;;;13.25;8.13;;;;;;;;;;5027322;28;20179;-69
2024/01/13 05:16:41;;;;;;;8.45;6.28;;;;;;;;;;5017618;28;20037;-70
2024/01/13 05:19:07;;;;;;;11.40;6.28;;;;;;;;;;5023386;28;20030;-70
2024/01/13 05:21:34;;;;;;;11.00;6.45;;;;;;;;;;5020016;28;20037;-69
2024/01/13 05:24:00;;;;;;;12.25;5.97;;;;;;;;;;5020723;28;20300;-69
2024/01/13 05:26:26;;;;;;;8.10;5.97;;;;;;;;;;5017848;28;20036;-69
2024/01/13 05:28:52;;;;;;;13.77;7.60;;;;;;;;;;5019776;28;20026;-70
2024/01/13 05:31:18;;;;;;;14.23;8.32;;;;;;;;;;5016825;28;20049;-69
2024/01/13 05:33:44;;;;;;;10.40;7.35;;;;;;;;;;5010283;28;20175;-69
2024/01/13 05:36:10;;;;;;;10.15;5.53;;;;;;;;;;5017452;28;20083;-70
2024/01/13 05:38:36;;;;;;;12.05;6.40;;;;;;;;;;5016468;28;20041;-70
2024/01/13 05:41:03;;;;;;;15.45;5.78;;;;;;;;;;5021241;28;20017;-69
2024/01/13 05:43:29;;;;;;;12.32;5.60;;;;;;;;;;5015408;28;20076;-69
2024/01/13 05:45:55;;;;;;;14.60;8.27;;;;;;;;;;5013635;28;20053;-70
2024/01/13 05:48:21;;;;;;;13.35;5.80;;;;;;;;;;5022776;28;20037;-70
2024/01/13 05:50:48;;;;;;;13.55;6.50;;;;;;;;;;5011295;28;20109;-70
2024/01/13 05:53:14;;;;;;;11.75;6.78;;;;;;;;;;5004561;28;20113;-69
2024/01/13 05:55:40;;;;;;;13.98;7.38;;;;;;;;;;5013778;28;20489;-69
2024/01/13 05:58:06;;;;;;;9.43;6.15;;;;;;;;;;5022851;28;20037;-69
2024/01/13 06:00:32;;;;;;;14.77;7.05;;;;;;;;;;5011712;28;20038;-69
2024/01/13 06:02:59;;;;;;;15.48;6.05;;;;;;;;;;5013884;28;20033;-70
2024/01/13 06:05:25;;;;;;;14.55;7.07;;;;;;;;;;5011067;28;20031;-70
2024/01/13 06:07:51;;;;;;;12.77;6.28;;;;;;;;;;5038399;28;20041;-70
2024/01/13 06:10:17;;;;;;;12.30;6.78;;;;;;;;;;5014700;28;20052;-70
2024/01/13 06:12:47;;;;;;;13.00;6.32;;;;;;;;;;5012377;28;20025;-69
2024/01/13 06:15:13;;;;;;;33.45;8.07;;;;;;;;;;5019008;28;20072;-69
2024/01/13 06:17:39;;;;;;;15.15;8.25;;;;;;;;;;5017709;28;20022;-69
2024/01/13 06:20:05;;;;;;;15.65;8.07;;;;;;;;;;5027066;28;20092;-70
2024/01/13 06:22:32;;;;;;;19.60;10.02;;;;;;;;;;5017627;28;20030;-70
2024/01/13 06:24:58;;;;;;;16.02;8.88;;;;;;;;;;5014815;28;20038;-69
2024/01/13 06:27:24;;;;;;;13.77;6.57;;;;;;;;;;5011674;28;20022;-69
2024/01/13 06:29:50;;;;;;;14.82;7.28;;;;;;;;;;5012769;28;20041;-70
2024/01/13 06:32:16;;;;;;;13.45;7.72;;;;;;;;;;5011104;28;20029;-69
2024/01/13 06:34:42;;;;;;;16.75;7.80;;;;;;;;;;5018348;28;20136;-69
2024/01/13 06:37:08;;;;;;;19.17;9.45;;;;;;;;;;5028829;28;20500;-70
2024/01/13 06:39:35;;;;;;;14.13;6.90;;;;;;;;;;5021092;28;20026;-70
2024/01/13 06:42:06;;;;;;;20.63;8.85;;;;;;;;;;5016046;28;20026;-69
2024/01/13 06:44:33;;;;;;;14.45;9.52;;;;;;;;;;5018742;28;20037;-69
2024/01/13 06:46:59;;;;;;;16.83;8.32;;;;;;;;;;5013812;28;20541;-69
2024/01/13 06:49:25;;;;;;;16.33;7.75;;;;;;;;;;5012935;28;20124;-70
2024/01/13 06:51:51;;;;;;;20.45;10.38;;;;;;;;;;5015747;28;20056;-70
2024/01/13 06:54:18;;;;;;;19.70;7.95;;;;;;;;;;5019392;28;20389;-70
2024/01/13 06:57:02;;;;;;;16.67;9.23;;;;;;;;;;5018249;28;20030;-70
2024/01/13 06:59:28;;;;;;;22.35;10.13;;;;;;;;;;5026458;28;20056;-69
2024/01/13 07:01:54;;;;;;;20.83;8.73;;;;;;;;;;5021079;28;20218;-69
2024/01/13 07:04:20;;;;;;;20.42;8.23;;;;;;;;;;5020227;28;20041;-70
2024/01/13 07:06:46;;;;;;;14.27;7.32;;;;;;;;;;5045514;28;20025;-69
2024/01/13 07:09:12;;;;;;;17.80;7.63;;;;;;;;;;5022780;28;20061;-69
2024/01/13 07:11:38;;;;;;;16.58;8.32;;;;;;;;;;5015301;28;20072;-69
2024/01/13 07:14:05;;;;;;;19.90;8.73;;;;;;;;;;5019568;28;20083;-69
2024/01/13 07:16:32;;;;;;;17.15;8.20;;;;;;;;;;5034477;28;20037;-69
2024/01/13 07:18:58;;;;;;;18.48;8.98;;;;;;;;;;5022931;28;20029;-69
2024/01/13 07:21:25;;;;;;;17.85;9.73;;;;;;;;;;5016167;28;20030;-69
2024/01/13 07:23:51;;;;;;;18.02;8.20;;;;;;;;;;5022746;28;20443;-70
2024/01/13 07:26:17;;;;;;;15.35;9.93;;;;;;;;;;5019664;28;20060;-70
2024/01/13 07:28:43;;;;;;;24.67;9.48;;;;;;;;;;5019823;28;20026;-69
2024/01/13 07:31:09;;;;;;;18.52;8.63;;;;;;;;;;5015604;28;20091;-69
2024/01/13 07:33:35;;;;;;;17.85;7.93;;;;;;;;;;5017926;28;20548;-70
2024/01/13 07:36:02;;;;;;;18.02;9.43;;;;;;;;;;5020354;28;20040;-70
2024/01/13 07:38:29;;;;;;;13.30;8.10;;;;;;;;;;5017333;28;20137;-70
2024/01/13 07:40:56;;;;;;;15.27;8.30;;;;;;;;;;5019789;28;20595;-69
2024/01/13 07:43:23;;;;;;;17.13;8.52;;;;;;;;;;5020679;28;20033;-69
2024/01/13 07:45:49;;;;;;;14.60;7.80;;;;;;;;;;5015636;28;20029;-70
2024/01/13 07:48:15;;;;;;;21.73;9.18;;;;;;;;;;5019563;28;20032;-69
2024/01/13 07:50:41;;;;;;;18.23;8.48;;;;;;;;;;5016873;28;20410;-69
2024/01/13 07:53:07;;;;;;;19.20;9.68;;;;;;;;;;5022253;28;20079;-70
2024/01/13 07:55:36;;;;;;;16.90;9.95;;;;;;;;;;5012779;28;20121;-69
2024/01/13 07:58:03;;;;;;;18.48;9.15;;;;;;;;;;5017599;28;20086;-70
2024/01/13 08:00:29;;;;;;;16.02;9.45;;;;;;;;;;5032600;28;20030;-70
2024/01/13 08:02:55;;;;;;;16.80;7.43;;;;;;;;;;5019376;28;20091;-69
2024/01/13 08:05:22;;;;;;;14.50;7.22;;;;;;;;;;5015325;28;20112;-70
2024/01/13 08:07:48;;;;;;;21.33;8.95;;;;;;;;;;5023794;28;20033;-69
2024/01/13 08:10:14;;;;;;;17.67;7.78;;;;;;;;;;5013174;28;20029;-70
2024/01/13 08:12:40;;;;;;;10.90;6.10;;;;;;;;;;5036000;28;20025;-69
2024/01/13 08:15:07;;;;;;;16.65;7.60;;;;;;;;;;5017326;28;20102;-69
2024/01/13 08:17:33;;;;;;;15.40;8.80;;;;;;;;;;5020800;28;20033;-70
2024/01/13 08:20:01;;;;;;;15.20;7.72;;;;;;;;;;5014403;28;20622;-70
2024/01/13 08:22:27;;;;;;;15.82;7.68;;;;;;;;;;5039307;28;20037;-70
2024/01/13 08:24:55;;;;;;;19.65;7.63;;;;;;;;;;5017649;28;20030;-70
2024/01/13 08:27:21;;;;;;;20.63;7.90;;;;;;;;;;5015483;28;20108;-69
2024/01/13 08:29:47;;;;;;;11.90;7.88;;;;;;;;;;5019151;28;20029;-70
2024/01/13 08:32:13;;;;;;;12.02;6.55;;;;;;;;;;5016740;28;20044;-70
2024/01/13 08:34:39;;;;;;;14.38;7.50;;;;;;;;;;5020158;28;20041;-70
2024/01/13 08:37:05;;;;;;;16.23;8.32;;;;;;;;;;5017461;28;20026;-70
2024/01/13 08:39:32;;;;;;;29.80;9.32;;;;;;;;;;5017957;28;20056;-69
2024/01/13 08:41:58;;;;;;;15.43;8.93;;;;;;;;;;5024886;28;20041;-69
2024/01/13 08:44:24;;;;;;;16.92;7.65;;;;;;;;;;5018844;28;20105;-69
2024/01/13 08:46:50;;;;;;;13.02;7.45;;;;;;;;;;5015099;28;20513;-70
2024/01/13 08:49:16;;;;;;;15.60;8.40;;;;;;;;;;5023271;28;20045;-69
2024/01/13 08:51:42;;;;;;;15.75;9.43;;;;;;;;;;5018724;28;20156;-70
2024/01/13 08:54:09;;;;;;;19.35;10.25;;;;;;;;;;5008240;28;20025;-70
2024/01/13 08:56:35;;;;;;;14.80;8.65;;;;;;;;;;5018150;28;20057;-69
2024/01/13 08:59:05;;;;;;;15.38;7.88;;;;;;;;;;5016803;28;20104;-70
2024/01/13 09:01:31;;;;;;;13.63;7.85;;;;;;;;;;5020129;28;20541;-70
2024/01/13 09:03:57;;;;;;;15.60;8.25;;;;;;;;;;5020728;28;20080;-70
2024/01/13 09:06:23;;;;;;;13.98;7.20;;;;;;;;;;5019343;28;20079;-69
2024/01/13 09:08:50;;;;;;;13.63;9.00;;;;;;;;;;5015892;28;20099;-70
2024/01/13 09:11:16;;;;;;;13.88;7.40;;;;;;;;;;5015804;28;20462;-69
2024/01/13 09:13:42;;;;;;;12.98;7.60;;;;;;;;;;5015313;28;20017;-70
2024/01/13 09:16:08;;;;;;;14.38;7.88;;;;;;;;;;5016256;28;20029;-70
2024/01/13 09:18:34;;;;;;;17.10;9.52;;;;;;;;;;5013157;28;20034;-70
2024/01/13 09:21:00;;;;;;;16.67;7.65;;;;;;;;;;5015724;28;20500;-70
2024/01/13 09:23:27;;;;;;;18.63;8.38;;;;;;;;;;5009386;28;20196;-70
2024/01/13 09:25:53;;;;;;;21.50;8.43;;;;;;;;;;5019665;28;20049;-70
2024/01/13 09:28:19;;;;;;;18.48;9.30;;;;;;;;;;5017898;28;20040;-70
2024/01/13 09:30:45;;;;;;;19.08;8.60;;;;;;;;;;5021385;28;20049;-70
2024/01/13 09:33:11;;;;;;;17.23;8.75;;;;;;;;;;5017283;28;20026;-70
2024/01/13 09:35:37;;;;;;;19.98;10.80;;;;;;;;;;5012784;28;20038;-69
2024/01/13 09:38:04;;;;;;;14.75;8.55;;;;;;;;;;5015756;28;20039;-70
2024/01/13 09:40:30;;;;;;;17.63;9.98;;;;;;;;;;5015763;28;20103;-70
2024/01/13 09:43:13;;;;;;;14.95;8.10;;;;;;;;;;5017773;28;20469;-69
2024/01/13 09:45:41;;;;;;;18.15;9.65;;;;;;;;;;5011030;28;20513;-70
2024/01/13 09:48:09;;;;;;;14.85;8.68;;;;;;;;;;5011830;28;20034;-69
2024/01/13 09:50:37;;;;;;;14.93;7.82;;;;;;;;;;5010605;28;20228;-70
2024/01/13 09:53:06;;;;;;;15.55;8.75;;;;;;;;;;5015813;28;20044;-70
2024/01/13 09:55:33;;;;;;;22.70;8.30;;;;;;;;;;5016172;28;20550;-66
2024/01/13 09:58:00;;;;;;;20.58;10.07;;;;;;;;;;5035095;28;20135;-64
2024/01/13 10:00:30;;;;;;;20.77;10.90;;;;;;;;;;5037273;28;20022;-65
2024/01/13 10:02:57;;;;;;;17.98;9.73;;;;;;;;;;5013318;28;20470;-69
2024/01/13 10:05:23;;;;;;;18.15;10.73;;;;;;;;;;5026295;28;20079;-68
2024/01/13 10:07:52;;;;;;;17.17;9.25;;;;;;;;;;5011360;28;20053;-68
2024/01/13 10:10:19;;;;;;;21.75;9.23;;;;;;;;;;5009857;28;20032;-68
2024/01/13 10:12:45;;;;;;;18.45;8.57;;;;;;;;;;5013164;28;20512;-68
2024/01/13 10:15:13;;;;;;;20.67;10.05;;;;;;;;;;5008084;28;20037;-68
2024/01/13 10:17:39;;;;;;;19.10;8.73;;;;;;;;;;5017853;28;20024;-68
2024/01/13 10:20:08;;;;;;;17.40;9.13;;;;;;;;;;5012457;28;20026;-68
2024/01/13 10:22:37;;;;;;;19.23;8.50;;;;;;;;;;5021668;28;20021;-68
2024/01/13 10:25:03;;;;;;;12.52;8.05;;;;;;;;;;5031321;28;20389;-67
2024/01/13 10:27:30;;;;;;;11.90;8.32;;;;;;;;;;5020204;28;20520;-69
2024/01/13 10:29:56;;;;;;;19.67;9.45;;;;;;;;;;5023368;28;20181;-63
2024/01/13 10:32:22;;;;;;;15.57;8.05;;;;;;;;;;5039682;28;20167;-62
2024/01/13 10:34:53;;;;;;;18.02;9.75;;;;;;;;;;5018819;28;20030;-62
2024/01/13 10:37:19;;;;;;;16.67;8.48;;;;;;;;;;5033536;28;20036;-62
2024/01/13 10:39:45;;;;;;;17.90;9.25;;;;;;;;;;5025872;28;20116;-62
2024/01/13 10:42:19;;;;;;;23.13;8.75;;;;;;;;;;5024518;28;20037;-62
2024/01/13 10:44:55;;;;;;;18.20;8.30;;;;;;;;;;5018581;28;20089;-62
2024/01/13 10:47:25;;;;;;;21.05;9.23;;;;;;;;;;5018751;28;20563;-65
2024/01/13 10:49:52;;;;;;;18.17;10.32;;;;;;;;;;5013888;28;20073;-61
2024/01/13 10:52:23;;;;;;;20.58;9.80;;;;;;;;;;5019388;28;20029;-62
2024/01/13 10:54:49;;;;;;;19.23;9.23;;;;;;;;;;5020092;28;20029;-62
2024/01/13 10:57:16;;;;;;;25.40;9.98;;;;;;;;;;5018328;28;20037;-62
2024/01/13 10:59:43;;;;;;;21.52;10.00;;;;;;;;;;5018688;28;20036;-62
2024/01/13 11:02:13;;;;;;;22.50;10.63;;;;;;;;;;5018911;28;20460;-61
2024/01/13 11:04:42;;;;;;;24.35;9.30;;;;;;;;;;5011075;28;20072;-62
2024/01/13 11:07:08;;;;;;;23.58;11.50;;;;;;;;;;5034967;28;20123;-62
2024/01/13 11:09:34;;;;;;;15.07;9.85;;;;;;;;;;5019749;28;20053;-62
2024/01/13 11:12:10;;;;;;;19.70;9.68;;;;;;;;;;5014879;28;20455;-62
2024/01/13 11:14:40;;;;;;;17.58;11.20;;;;;;;;;;5017343;28;20054;-62
2024/01/13 11:17:07;;;;;;;17.98;9.55;;;;;;;;;;5011965;28;20036;-61
2024/01/13 11:19:35;;;;;;;15.65;8.30;;;;;;;;;;5016054;28;20079;-62
2024/01/13 11:22:22;;;;;;;13.88;8.85;;;;;;;;;;5011285;28;20048;-61
2024/01/13 11:24:47;;;;;;;;;;;;;;;;;;5016523;28;20026;-61
2024/01/13 11:27:14;;;;;;;22.15;10.35;;;;;;;;;;5011326;28;20282;-62
2024/01/13 11:29:43;;;;;;;25.20;11.90;;;;;;;;;;5018300;28;20584;-62
2024/01/13 11:32:09;;;;;;;18.17;9.48;;;;;;;;;;5017223;28;20244;-61
2024/01/13 11:34:35;;;;;;;19.25;8.68;;;;;;;;;;5022018;28;20029;-62
2024/01/13 11:37:01;;;;;;;18.67;9.48;;;;;;;;;;5019338;28;20370;-62
2024/01/13 11:39:28;;;;;;;18.45;9.82;;;;;;;;;;5009651;28;20093;-62
2024/01/13 11:41:58;;;;;;;19.02;10.43;;;;;;;;;;5016945;28;20030;-63
2024/01/13 11:44:26;;;;;;;21.75;11.35;;;;;;;;;;5011402;28;20450;-61
2024/01/13 11:47:02;;;;;;;25.05;11.23;;;;;;;;;;5016513;28;20017;-62
2024/01/13 11:49:31;;;;;;;19.23;10.57;;;;;;;;;;5019427;28;20083;-62
2024/01/13 11:51:57;;;;;;;20.67;11.80;;;;;;;;;;5021588;28;20041;-61
2024/01/13 11:54:24;;;;;;;26.20;11.70;;;;;;;;;;5013935;28;20030;-61
2024/01/13 11:56:51;;;;;;;25.55;12.65;;;;;;;;;;5017498;28;20112;-61
2024/01/13 11:59:17;;;;;;;19.58;11.32;;;;;;;;;;5022815;28;20048;-61
2024/01/13 12:01:47;;;;;;;23.48;11.52;;;;;;;;;;5016371;28;20104;-61
2024/01/13 12:04:14;;;;;;;23.17;11.68;;;;;;;;;;5014096;28;20040;-61
2024/01/13 12:06:42;;;;;;;22.48;9.95;;;;;;;;;;5017591;28;20033;-61
2024/01/13 12:09:08;;;;;;;20.58;8.90;;;;;;;;;;5018179;28;20064;-61
2024/01/13 12:11:34;;;;;;;20.42;9.25;;;;;;;;;;5017405;28;20040;-62
2024/01/13 12:14:04;;;;;;;24.10;12.55;;;;;;;;;;5008643;28;20041;-60
2024/01/13 12:16:30;;;;;;;26.13;11.02;;;;;;;;;;5016548;28;20422;-62
2024/01/13 12:18:56;;;;;;;23.13;10.85;;;;;;;;;;5018469;28;20139;-62
2024/01/13 12:21:23;;;;;;;24.85;10.45;;;;;;;;;;5016634;28;20037;-61
2024/01/13 12:23:49;;;;;;;22.35;10.25;;;;;;;;;;5015690;28;20030;-61
2024/01/13 12:26:15;;;;;;;33.80;13.68;;;;;;;;;;5013934;28;20113;-61
2024/01/13 12:28:42;;;;;;;20.85;10.00;;;;;;;;;;5016620;28;20066;-62
2024/01/13 12:31:08;;;;;;;20.85;10.15;;;;;;;;;;5019489;28;20405;-62
2024/01/13 12:33:34;;;;;;;20.65;9.85;;;;;;;;;;5019108;28;20034;-61
2024/01/13 12:36:01;;;;;;;22.23;11.32;;;;;;;;;;5011596;28;20331;-62
2024/01/13 12:38:28;;;;;;;18.48;9.63;;;;;;;;;;5018091;28;20465;-63
2024/01/13 12:40:57;;;;;;;20.83;10.32;;;;;;;;;;5033404;28;20039;-62
2024/01/13 12:43:25;;;;;;;18.38;9.52;;;;;;;;;;5018058;28;20017;-62
2024/01/13 12:45:58;;;;;;;20.50;8.90;;;;;;;;;;5021284;28;20041;-63
2024/01/13 12:48:25;;;;;;;23.50;11.05;;;;;;;;;;5014233;28;20041;-62
2024/01/13 12:50:52;;;;;;;20.85;11.02;;;;;;;;;;5012596;28;20132;-62
2024/01/13 12:53:28;;;;;;;20.63;9.77;;;;;;;;;;5015656;28;20579;-63
2024/01/13 12:55:54;;;;;;;;;;;;;;;;;;5025514;28;20030;-62
2024/01/13 12:58:20;;;;;;;18.20;8.60;;;;;;;;;;5020685;28;20422;-61
2024/01/13 13:00:46;;;;;;;19.83;10.75;;;;;;;;;;5034312;28;20055;-62
2024/01/13 13:03:12;;;;;;;17.67;9.48;;;;;;;;;;5012165;28;20038;-62
2024/01/13 13:05:38;;;;;;;18.20;9.77;;;;;;;;;;5028380;28;20034;-62
2024/01/13 13:08:04;;;;;;;25.02;12.50;;;;;;;;;;5013857;28;20099;-62
2024/01/13 13:10:30;;;;;;;24.13;11.10;;;;;;;;;;5012945;28;20032;-61
2024/01/13 13:12:59;;;;;;;24.52;11.25;;;;;;;;;;5011929;28;20388;-61
2024/01/13 13:15:26;;;;;;;25.77;11.80;;;;;;;;;;5024397;28;20029;-61
2024/01/13 13:17:52;;;;;;;22.23;12.30;;;;;;;;;;5030325;28;20486;-61
2024/01/13 13:20:18;;;;;;;21.20;12.57;;;;;;;;;;5018091;28;20029;-65
2024/01/13 13:22:44;;;;;;;24.95;13.55;;;;;;;;;;5015716;28;20100;-60
2024/01/13 13:25:10;;;;;;;24.80;13.15;;;;;;;;;;5024188;28;20030;-62
2024/01/13 13:27:37;;;;;;;18.52;10.15;;;;;;;;;;5012514;28;20025;-64
2024/01/13 13:30:05;;;;;;;16.67;9.77;;;;;;;;;;5020085;28;20041;-62
2024/01/13 13:32:31;;;;;;;15.73;9.73;;;;;;;;;;5012633;28;20468;-61
2024/01/13 13:34:57;;;;;;;17.45;9.45;;;;;;;;;;5013120;28;20030;-61
2024/01/13 13:37:23;;;;;;;18.42;9.98;;;;;;;;;;5012868;28;20267;-61
2024/01/13 13:39:49;;;;;;;17.20;10.60;;;;;;;;;;5010970;28;20037;-62
2024/01/13 13:42:15;;;;;;;16.63;7.55;;;;;;;;;;5016350;28;20390;-61
2024/01/13 13:44:42;;;;;;;20.48;9.40;;;;;;;;;;5027786;28;20017;-62
2024/01/13 13:47:08;;;;;;;24.02;10.07;;;;;;;;;;5016981;28;20045;-62
2024/01/13 13:49:34;;;;;;;16.77;8.98;;;;;;;;;;5011375;28;20033;-62
2024/01/13 13:52:00;;;;;;;20.60;11.38;;;;;;;;;;5028099;28;20164;-62
2024/01/13 13:54:27;;;;;;;23.92;13.98;;;;;;;;;;5036790;28;20026;-62
2024/01/13 13:56:53;;;;;;;16.33;9.15;;;;;;;;;;5015542;28;20038;-62
2024/01/13 13:59:19;;;;;;;25.38;13.93;;;;;;;;;;5019217;28;20025;-62
2024/01/13 14:01:45;;;;;;;23.90;12.77;;;;;;;;;;5019000;28;20068;-65
2024/01/13 14:04:11;;;;;;;24.15;11.50;;;;;;;;;;5016881;28;20029;-61
2024/01/13 14:06:38;;;;;;;24.50;11.18;;;;;;;;;;5019827;28;20064;-62
2024/01/13 14:09:08;;;;;;;18.85;9.18;;;;;;;;;;5017018;28;20037;-63
2024/01/13 14:11:36;;;;;;;17.13;9.60;;;;;;;;;;5020969;28;20026;-61
2024/01/13 14:14:03;;;;;;;22.73;11.48;;;;;;;;;;5017464;28;21752;-61
2024/01/13 14:16:29;;;;;;;22.85;13.35;;;;;;;;;;5020824;28;20028;-61
2024/01/13 14:18:55;;;;;;;19.35;13.07;;;;;;;;;;5017309;28;20045;-64
2024/01/13 14:21:23;;;;;;;18.42;9.68;;;;;;;;;;5011674;28;20088;-61
2024/01/13 14:23:49;;;;;;;18.88;9.43;;;;;;;;;;5011172;28;20026;-61
2024/01/13 14:26:16;;;;;;;25.20;11.68;;;;;;;;;;5018533;28;20049;-61